createdAt,value
2023-01-29T00:01:34.011Z,95.58
2023-01-29T00:04:25.121Z,95.56
2023-01-29T00:07:16.265Z,95.48
2023-01-29T00:10:07.702Z,95.36
2023-01-29T00:12:58.232Z,95.27
2023-01-29T00:15:56.500Z,95.27
2023-01-29T00:18:47.283Z,95.36
2023-01-29T00:21:37.812Z,95.37
2023-01-29T00:24:28.208Z,95.46
2023-01-29T00:27:18.653Z,95.42
2023-01-29T00:30:12.251Z,95.26
2023-01-29T00:33:02.811Z,95.05
2023-01-29T00:35:53.356Z,94.89
2023-01-29T00:38:44.123Z,94.63
2023-01-29T00:41:51.915Z,94.54
2023-01-29T00:45:00.781Z,94.55
2023-01-29T00:47:51.228Z,94.61
2023-01-29T00:50:42.284Z,94.66
2023-01-29T00:53:32.789Z,94.82
2023-01-29T00:56:23.240Z,94.82
2023-01-29T00:59:14.147Z,94.76
2023-01-29T01:02:22.586Z,94.92
2023-01-29T01:05:18.329Z,95.04
2023-01-29T01:08:29.050Z,95.06
2023-01-29T01:11:21.215Z,94.95
2023-01-29T01:14:11.741Z,94.92
2023-01-29T01:17:02.178Z,95.12
2023-01-29T01:19:52.607Z,95.13
2023-01-29T01:22:43.144Z,94.90
2023-01-29T01:25:33.933Z,94.57
2023-01-29T01:28:24.887Z,94.34
2023-01-29T01:31:15.731Z,94.18
2023-01-29T01:34:06.671Z,94.04
2023-01-29T01:36:57.227Z,93.90
2023-01-29T01:39:49.315Z,93.84
2023-01-29T01:42:39.604Z,93.84
2023-01-29T01:45:31.806Z,93.85
2023-01-29T01:48:23.565Z,93.83
2023-01-29T01:51:15.084Z,93.81
2023-01-29T01:54:08.942Z,93.93
2023-01-29T01:57:09.441Z,93.96
2023-01-29T02:00:10.353Z,94.01
2023-01-29T02:03:25.203Z,93.99
2023-01-29T02:06:33.211Z,94.04
2023-01-29T02:09:37.054Z,94.10
2023-01-29T02:12:31.224Z,94.33
2023-01-29T02:15:22.122Z,94.39
2023-01-29T02:18:12.745Z,94.47
2023-01-29T02:21:13.119Z,94.60
2023-01-29T02:24:17.117Z,94.80
2023-01-29T02:27:10.428Z,94.90
2023-01-29T02:30:04.802Z,95.01
2023-01-29T02:33:02.405Z,95.01
2023-01-29T02:35:57.355Z,95.10
2023-01-29T02:38:52.260Z,95.12
2023-01-29T02:41:47.241Z,95.20
2023-01-29T02:44:39.966Z,95.28
2023-01-29T02:47:35.250Z,95.33
2023-01-29T02:50:30.375Z,95.50
2023-01-29T02:53:25.742Z,95.57
2023-01-29T02:59:34.345Z,95.58
2023-01-29T03:02:27.768Z,95.53
2023-01-29T03:05:23.260Z,95.63
2023-01-29T03:08:17.817Z,95.59
2023-01-29T03:11:08.517Z,95.50
2023-01-29T03:14:04.068Z,95.47
2023-01-29T03:16:57.202Z,95.53
2023-01-29T03:19:48.697Z,95.74
2023-01-29T03:22:50.792Z,95.69
2023-01-29T03:26:00.206Z,95.80
2023-01-29T03:29:11.415Z,95.98
2023-01-29T03:32:08.507Z,95.98
2023-01-29T03:35:06.585Z,95.98
2023-01-29T03:37:57.259Z,95.82
2023-01-29T03:40:50.551Z,95.80
2023-01-29T03:43:46.451Z,95.78
2023-01-29T03:46:42.606Z,95.75
2023-01-29T03:49:39.672Z,95.64
2023-01-29T03:52:38.617Z,95.54
2023-01-29T03:55:35.584Z,95.49
2023-01-29T03:58:29.275Z,95.17
2023-01-29T04:01:22.880Z,95.05
2023-01-29T04:04:16.449Z,94.83
2023-01-29T04:07:10.244Z,94.57
2023-01-29T04:10:03.058Z,94.19
2023-01-29T04:12:56.557Z,94.06
2023-01-29T04:15:48.979Z,93.97
2023-01-29T04:18:40.838Z,93.85
2023-01-29T04:21:34.525Z,93.77
2023-01-29T04:24:26.665Z,93.54
2023-01-29T04:27:57.643Z,93.23
2023-01-29T04:30:53.340Z,92.77
2023-01-29T04:33:46.417Z,92.55
2023-01-29T04:36:40.355Z,92.26
2023-01-29T04:39:34.341Z,92.13
2023-01-29T04:42:30.469Z,91.92
2023-01-29T04:45:27.184Z,91.74
2023-01-29T04:48:20.929Z,91.70
2023-01-29T04:51:13.908Z,91.55
2023-01-29T04:54:08.628Z,91.42
2023-01-29T04:57:03.123Z,91.31
2023-01-29T04:59:59.059Z,91.23
2023-01-29T05:02:50.302Z,91.23
2023-01-29T05:05:43.030Z,91.24
2023-01-29T05:08:34.439Z,91.22
2023-01-29T05:11:26.113Z,91.29
2023-01-29T05:14:18.859Z,91.39
2023-01-29T05:17:11.709Z,91.37
2023-01-29T05:20:02.260Z,91.29
2023-01-29T05:22:52.956Z,91.34
2023-01-29T05:25:43.495Z,91.31
2023-01-29T05:28:33.944Z,91.30
2023-01-29T05:31:24.476Z,91.33
2023-01-29T05:34:14.935Z,91.37
2023-01-29T05:37:06.509Z,91.28
2023-01-29T05:39:58.236Z,91.29
2023-01-29T05:42:48.697Z,91.30
2023-01-29T05:45:39.298Z,91.33
2023-01-29T05:48:31.585Z,91.41
2023-01-29T05:51:23.288Z,91.37
2023-01-29T05:54:14.166Z,91.39
2023-01-29T05:57:05.549Z,91.39
2023-01-29T05:59:56.869Z,91.50
2023-01-29T06:02:47.976Z,91.57
2023-01-29T06:05:40.258Z,91.78
2023-01-29T06:08:30.801Z,91.86
2023-01-29T06:11:21.904Z,91.92
2023-01-29T06:14:13.704Z,91.96
2023-01-29T06:17:05.049Z,92.02
2023-01-29T06:19:57.078Z,92.08
2023-01-29T06:22:47.711Z,92.14
2023-01-29T06:25:38.351Z,92.21
2023-01-29T06:28:29.242Z,92.34
2023-01-29T06:31:36.838Z,92.44
2023-01-29T06:34:30.455Z,92.43
2023-01-29T06:37:20.840Z,92.48
2023-01-29T06:40:12.538Z,92.58
2023-01-29T06:43:03.047Z,92.68
2023-01-29T06:45:54.603Z,92.76
2023-01-29T06:48:45.512Z,92.80
2023-01-29T06:51:36.071Z,92.95
2023-01-29T06:54:26.723Z,92.99
2023-01-29T06:57:17.373Z,93.16
2023-01-29T07:00:10.433Z,93.26
2023-01-29T07:03:01.102Z,93.32
2023-01-29T07:05:57.685Z,93.46
2023-01-29T07:08:48.305Z,93.61
2023-01-29T07:11:38.779Z,93.73
2023-01-29T07:14:29.311Z,93.86
2023-01-29T07:17:20.729Z,93.94
2023-01-29T07:20:12.961Z,94.10
2023-01-29T07:23:03.207Z,94.12
2023-01-29T07:25:53.646Z,94.32
2023-01-29T07:28:43.956Z,94.41
2023-01-29T07:31:34.463Z,94.52
2023-01-29T07:34:25.019Z,94.76
2023-01-29T07:37:15.575Z,94.72
2023-01-29T07:40:11.318Z,94.78
2023-01-29T07:43:02.210Z,94.78
2023-01-29T07:45:53.062Z,94.77
2023-01-29T07:48:46.603Z,94.85
2023-01-29T07:51:37.546Z,94.91
2023-01-29T07:54:28.106Z,95.02
2023-01-29T07:57:18.456Z,95.15
2023-01-29T08:00:10.446Z,95.13
2023-01-29T08:03:09.921Z,95.18
2023-01-29T08:06:00.382Z,95.20
2023-01-29T08:08:52.797Z,95.20
2023-01-29T08:11:42.934Z,95.14
2023-01-29T08:14:35.765Z,95.22
2023-01-29T08:17:26.088Z,95.18
2023-01-29T08:20:16.921Z,95.08
2023-01-29T08:23:08.475Z,94.99
2023-01-29T08:25:59.045Z,94.94
2023-01-29T08:28:49.558Z,94.75
2023-01-29T08:31:39.992Z,94.85
2023-01-29T08:34:30.421Z,95.03
2023-01-29T08:37:20.810Z,95.12
2023-01-29T08:40:13.519Z,95.09
2023-01-29T08:43:06.989Z,95.10
2023-01-29T08:45:58.624Z,95.06
2023-01-29T08:48:49.172Z,95.02
2023-01-29T08:51:39.569Z,95.10
2023-01-29T08:54:30.146Z,95.05
2023-01-29T08:57:20.582Z,94.89
2023-01-29T09:00:12.207Z,94.82
2023-01-29T09:03:03.962Z,94.80
2023-01-29T09:05:54.500Z,94.88
2023-01-29T09:08:46.569Z,94.98
2023-01-29T09:11:38.298Z,95.00
2023-01-29T09:14:29.201Z,95.09
2023-01-29T09:17:20.832Z,95.12
2023-01-29T09:20:13.593Z,95.10
2023-01-29T09:23:06.542Z,94.93
2023-01-29T09:25:57.082Z,94.79
2023-01-29T09:28:47.838Z,94.61
2023-01-29T09:31:38.439Z,94.42
2023-01-29T09:34:28.989Z,94.09
2023-01-29T09:37:21.057Z,93.78
2023-01-29T09:40:24.967Z,93.79
2023-01-29T09:43:18.148Z,93.93
2023-01-29T09:46:16.617Z,93.92
2023-01-29T09:49:09.746Z,93.89
2023-01-29T09:52:03.873Z,93.87
2023-01-29T09:54:58.712Z,93.50
2023-01-29T09:57:51.539Z,93.32
2023-01-29T10:00:47.014Z,93.41
2023-01-29T10:03:46.108Z,93.22
2023-01-29T10:06:44.906Z,93.25
2023-01-29T10:09:49.015Z,93.17
2023-01-29T10:12:48.359Z,93.16
2023-01-29T10:15:46.892Z,93.20
2023-01-29T10:19:06.375Z,93.25
2023-01-29T10:22:02.790Z,93.23
2023-01-29T10:24:55.458Z,93.18
2023-01-29T10:27:49.805Z,93.12
2023-01-29T10:30:44.821Z,92.97
2023-01-29T10:33:49.140Z,93.01
2023-01-29T10:36:46.855Z,92.94
2023-01-29T10:39:39.551Z,92.85
2023-01-29T10:42:36.128Z,92.89
2023-01-29T10:45:32.075Z,92.81
2023-01-29T10:48:41.747Z,92.82
2023-01-29T10:51:40.408Z,92.68
2023-01-29T10:54:46.763Z,92.77
2023-01-29T10:57:44.241Z,92.69
2023-01-29T11:00:42.633Z,92.41
2023-01-29T11:03:34.417Z,92.50
2023-01-29T11:06:26.516Z,92.25
2023-01-29T11:09:21.215Z,92.29
2023-01-29T11:12:14.698Z,92.31
2023-01-29T11:15:08.561Z,92.39
2023-01-29T11:18:09.496Z,92.44
2023-01-29T11:21:08.222Z,92.55
2023-01-29T11:24:08.980Z,92.69
2023-01-29T11:27:00.504Z,92.83
2023-01-29T11:29:53.406Z,92.85
2023-01-29T11:32:44.656Z,92.85
2023-01-29T11:35:36.593Z,92.83
2023-01-29T11:38:28.153Z,92.81
2023-01-29T11:41:22.544Z,92.83
2023-01-29T11:44:23.329Z,92.83
2023-01-29T11:47:20.140Z,92.75
2023-01-29T11:50:21.533Z,92.52
2023-01-29T11:53:23.918Z,92.42
2023-01-29T11:56:26.267Z,92.15
2023-01-29T11:59:28.485Z,91.88
2023-01-29T12:02:26.783Z,91.32
2023-01-29T12:05:18.938Z,91.17
2023-01-29T12:08:17.681Z,91.30
2023-01-29T12:11:15.982Z,91.11
2023-01-29T12:14:09.189Z,90.80
2023-01-29T12:17:01.658Z,90.53
2023-01-29T12:19:55.070Z,90.19
2023-01-29T12:22:48.654Z,89.78
2023-01-29T12:25:43.492Z,89.43
2023-01-29T12:28:45.938Z,89.31
2023-01-29T12:31:40.826Z,89.28
2023-01-29T12:34:42.338Z,88.81
2023-01-29T12:37:40.239Z,88.05
2023-01-29T12:40:36.188Z,86.59
2023-01-29T12:43:32.285Z,85.34
2023-01-29T12:46:26.602Z,84.81
2023-01-29T12:49:21.559Z,84.12
2023-01-29T12:52:15.817Z,82.97
2023-01-29T12:55:16.165Z,81.76
2023-01-29T12:58:11.858Z,81.67
2023-01-29T13:01:08.452Z,81.25
2023-01-29T13:04:02.898Z,80.12
2023-01-29T13:06:59.658Z,79.76
2023-01-29T13:09:55.006Z,79.49
2023-01-29T13:12:52.942Z,78.86
2023-01-29T13:15:45.630Z,76.75
2023-01-29T13:18:52.061Z,74.88
2023-01-29T13:21:43.977Z,74.35
2023-01-29T13:24:40.491Z,73.13
2023-01-29T13:27:31.815Z,71.97
2023-01-29T13:30:32.392Z,70.01
2023-01-29T13:33:25.130Z,69.36
2023-01-29T13:36:22.643Z,68.82
2023-01-29T13:39:20.712Z,68.17
2023-01-29T13:42:18.904Z,67.86
2023-01-29T13:45:11.063Z,68.21
2023-01-29T13:48:10.442Z,68.95
2023-01-29T13:51:04.851Z,69.80
2023-01-29T13:53:57.310Z,70.65
2023-01-29T13:56:59.359Z,70.36
2023-01-29T13:59:53.486Z,69.87
2023-01-29T14:02:44.046Z,70.26
2023-01-29T14:05:45.695Z,71.53
2023-01-29T14:08:44.739Z,72.41
2023-01-29T14:11:49.179Z,73.08
2023-01-29T14:15:04.685Z,73.82
2023-01-29T14:18:14.511Z,73.95
2023-01-29T14:21:06.439Z,73.34
2023-01-29T14:23:58.497Z,72.56
2023-01-29T14:26:49.678Z,71.67
2023-01-29T14:29:42.777Z,70.97
2023-01-29T14:32:33.295Z,71.07
2023-01-29T14:35:25.432Z,72.07
2023-01-29T14:38:16.320Z,72.93
2023-01-29T14:41:12.361Z,73.45
2023-01-29T14:44:19.972Z,74.40
2023-01-29T14:47:19.273Z,75.02
2023-01-29T14:50:23.273Z,75.49
2023-01-29T14:53:15.998Z,76.31
2023-01-29T14:56:13.074Z,76.97
2023-01-29T14:59:13.744Z,77.73
2023-01-29T15:02:07.270Z,78.45
2023-01-29T15:04:59.434Z,79.20
2023-01-29T15:07:54.000Z,79.83
2023-01-29T15:10:47.143Z,80.39
2023-01-29T15:13:43.079Z,80.89
2023-01-29T15:16:37.134Z,81.19
2023-01-29T15:19:30.574Z,81.49
2023-01-29T15:22:21.927Z,81.73
2023-01-29T15:25:15.612Z,81.88
2023-01-29T15:28:10.460Z,81.89
2023-01-29T15:31:02.389Z,81.43
2023-01-29T15:33:59.498Z,81.04
2023-01-29T15:36:50.829Z,80.60
2023-01-29T15:39:45.272Z,80.54
2023-01-29T15:42:47.833Z,80.23
2023-01-29T15:45:41.743Z,80.09
2023-01-29T15:48:34.297Z,79.84
2023-01-29T15:51:33.567Z,79.87
2023-01-29T15:54:24.601Z,79.87
2023-01-29T15:57:21.032Z,79.94
2023-01-29T16:00:22.359Z,80.05
2023-01-29T16:03:16.778Z,80.06
2023-01-29T16:06:08.986Z,80.17
2023-01-29T16:09:00.023Z,80.33
2023-01-29T16:11:51.750Z,80.69
2023-01-29T16:14:45.315Z,80.58
2023-01-29T16:17:36.465Z,80.58
2023-01-29T16:20:44.803Z,80.79
2023-01-29T16:23:38.239Z,80.74
2023-01-29T16:26:30.322Z,80.69
2023-01-29T16:29:22.863Z,80.34
2023-01-29T16:32:14.441Z,80.41
2023-01-29T16:35:05.598Z,80.50
2023-01-29T16:38:02.278Z,80.60
2023-01-29T16:41:06.541Z,80.57
2023-01-29T16:43:58.374Z,80.76
2023-01-29T16:46:49.348Z,80.83
2023-01-29T16:49:50.366Z,80.85
2023-01-29T16:52:40.897Z,80.74
2023-01-29T16:55:36.627Z,80.60
2023-01-29T16:58:30.414Z,80.64
2023-01-29T17:01:21.934Z,80.82
2023-01-29T17:04:15.066Z,80.91
2023-01-29T17:07:05.540Z,80.86
2023-01-29T17:09:58.784Z,81.03
2023-01-29T17:12:52.873Z,81.14
2023-01-29T17:15:46.948Z,81.36
2023-01-29T17:18:37.539Z,81.47
2023-01-29T17:21:28.341Z,81.71
2023-01-29T17:24:18.920Z,81.99
2023-01-29T17:27:13.138Z,82.13
2023-01-29T17:30:03.587Z,82.30
2023-01-29T17:32:53.941Z,82.54
2023-01-29T17:35:46.409Z,82.71
2023-01-29T17:38:36.705Z,82.65
2023-01-29T17:41:29.139Z,82.83
2023-01-29T17:44:19.822Z,83.04
2023-01-29T17:47:11.983Z,83.29
2023-01-29T17:50:02.418Z,83.57
2023-01-29T17:52:53.954Z,83.77
2023-01-29T17:55:44.780Z,84.26
2023-01-29T17:58:35.271Z,84.47
2023-01-29T18:01:25.830Z,84.60
2023-01-29T18:04:16.412Z,84.58
2023-01-29T18:07:06.840Z,84.51
2023-01-29T18:09:57.381Z,84.56
2023-01-29T18:12:47.961Z,84.59
2023-01-29T18:15:38.395Z,84.66
2023-01-29T18:18:28.692Z,84.66
2023-01-29T18:21:19.342Z,84.72
2023-01-29T18:24:10.624Z,84.71
2023-01-29T18:27:01.418Z,84.86
2023-01-29T18:29:52.089Z,84.93
2023-01-29T18:32:42.632Z,85.10
2023-01-29T18:35:36.887Z,85.28
2023-01-29T18:38:27.629Z,85.40
2023-01-29T18:41:18.241Z,85.55
2023-01-29T18:44:08.723Z,85.67
2023-01-29T18:46:59.044Z,85.94
2023-01-29T18:49:49.711Z,86.40
2023-01-29T18:52:40.977Z,86.58
2023-01-29T18:55:31.378Z,86.85
2023-01-29T18:58:28.747Z,87.17
2023-01-29T19:01:27.357Z,87.45
2023-01-29T19:04:18.525Z,87.69
2023-01-29T19:07:09.291Z,88.40
2023-01-29T19:09:59.849Z,88.68
2023-01-29T19:12:51.037Z,88.93
2023-01-29T19:15:44.707Z,89.26
2023-01-29T19:18:34.797Z,89.68
2023-01-29T19:21:25.729Z,89.86
2023-01-29T19:24:16.650Z,90.27
2023-01-29T19:27:07.321Z,90.45
2023-01-29T19:29:58.650Z,90.95
2023-01-29T19:32:49.390Z,91.19
2023-01-29T19:35:39.893Z,91.73
2023-01-29T19:38:33.559Z,92.05
2023-01-29T19:41:23.743Z,92.37
2023-01-29T19:44:14.866Z,92.40
2023-01-29T19:47:05.445Z,93.02
2023-01-29T19:49:56.061Z,93.38
2023-01-29T19:52:51.417Z,93.59
2023-01-29T19:55:48.479Z,93.92
2023-01-29T19:58:39.825Z,94.31
2023-01-29T20:01:30.639Z,94.38
2023-01-29T20:04:21.346Z,94.53
2023-01-29T20:07:11.989Z,94.86
2023-01-29T20:10:02.374Z,95.50
2023-01-29T20:12:52.925Z,95.49
2023-01-29T20:15:46.932Z,95.31
2023-01-29T20:18:37.486Z,94.97
2023-01-29T20:21:30.489Z,94.64
2023-01-29T20:24:21.057Z,94.24
2023-01-29T20:27:11.805Z,93.81
2023-01-29T20:30:02.186Z,93.46
2023-01-29T20:32:52.631Z,93.30
2023-01-29T20:35:43.171Z,93.14
2023-01-29T20:38:34.794Z,93.06
2023-01-29T20:41:25.270Z,93.09
2023-01-29T20:44:15.544Z,93.01
2023-01-29T20:47:05.908Z,92.88
2023-01-29T20:49:56.423Z,92.98
2023-01-29T20:52:47.486Z,92.98
2023-01-29T20:55:39.363Z,92.86
2023-01-29T20:58:37.140Z,92.77
2023-01-29T21:01:30.064Z,92.90
2023-01-29T21:04:21.596Z,92.92
2023-01-29T21:07:12.072Z,92.94
2023-01-29T21:10:02.525Z,92.92
2023-01-29T21:12:54.762Z,92.86
2023-01-29T21:15:45.663Z,92.62
2023-01-29T21:18:36.206Z,92.44
2023-01-29T21:21:28.447Z,92.25
2023-01-29T21:24:19.119Z,91.78
2023-01-29T21:27:09.865Z,91.32
2023-01-29T21:30:00.403Z,90.23
2023-01-29T21:32:51.059Z,89.77
2023-01-29T21:35:41.724Z,89.18
2023-01-29T21:38:32.224Z,88.73
2023-01-29T21:41:46.090Z,88.64
2023-01-29T21:44:36.896Z,88.67
2023-01-29T21:47:29.458Z,88.78
2023-01-29T21:50:20.475Z,88.71
2023-01-29T21:53:12.025Z,88.69
2023-01-29T21:56:03.100Z,88.18
2023-01-29T21:58:53.724Z,87.77
2023-01-29T22:01:44.262Z,87.84
2023-01-29T22:04:34.931Z,87.90
2023-01-29T22:07:25.556Z,87.74
2023-01-29T22:10:16.406Z,86.94
2023-01-29T22:13:07.127Z,86.69
2023-01-29T22:15:57.331Z,86.19
2023-01-29T22:18:48.048Z,85.69
2023-01-29T22:21:38.533Z,85.08
2023-01-29T22:24:29.096Z,84.94
2023-01-29T22:27:19.696Z,84.59
2023-01-29T22:30:11.391Z,84.64
2023-01-29T22:33:01.949Z,84.16
2023-01-29T22:35:56.050Z,84.20
2023-01-29T22:38:46.811Z,84.04
2023-01-29T22:41:37.355Z,84.05
2023-01-29T22:44:27.702Z,83.62
2023-01-29T22:47:18.667Z,83.39
2023-01-29T22:50:10.194Z,83.27
2023-01-29T22:53:00.653Z,83.16
2023-01-29T22:55:56.131Z,83.08
2023-01-29T22:58:46.655Z,83.09
2023-01-29T23:01:37.248Z,82.98
2023-01-29T23:04:27.728Z,82.97
2023-01-29T23:07:18.315Z,82.81
2023-01-29T23:10:09.744Z,82.94
2023-01-29T23:13:00.139Z,82.88
2023-01-29T23:16:00.744Z,82.87
2023-01-29T23:18:53.026Z,82.76
2023-01-29T23:21:44.103Z,82.86
2023-01-29T23:24:34.542Z,82.92
2023-01-29T23:27:24.907Z,82.91
2023-01-29T23:30:15.679Z,82.76
2023-01-29T23:33:06.832Z,82.26
2023-01-29T23:35:57.278Z,82.09
2023-01-29T23:38:47.584Z,82.05
2023-01-29T23:41:38.299Z,81.97
2023-01-29T23:44:32.631Z,81.95
2023-01-29T23:47:22.784Z,81.77
2023-01-29T23:50:14.391Z,81.65
2023-01-29T23:53:04.742Z,81.56
2023-01-29T23:55:58.917Z,81.36
2023-01-29T23:58:49.333Z,81.28
